Terminal Aerodrome Forecast
Issued by NWS

Home | Current Version | Previous Version | Text Only | Print | Product List | Glossary On
Versions: 1 2 3 4 5 6 7 8 9 10 11 12 13 14 15 16
000
FTUS44 KMAF 251415 AAC
TAFINK
TAF AMD
KINK 251415Z 2514/2612 14007KT P6SM FEW250
      TEMPO 2514/2515 BKN001
     FM251500 26010KT P6SM FEW250
     FM252100 24016G23KT P6SM FEW250
      AMD NOT SKED=

USA.gov is the U.S. government's official web portal to all federal, state and local government web resources and services.